createdAt,value
2019-05-10T00:00:13.396Z,17.02
2019-05-10T00:03:00.407Z,15.80
2019-05-10T00:05:47.958Z,17.95
2019-05-10T00:08:34.941Z,18.60
2019-05-10T00:11:35.137Z,16.90
2019-05-10T00:14:22.994Z,14.80
2019-05-10T00:16:53.838Z,17.48
2019-05-10T00:19:23.358Z,18.80
2019-05-10T00:21:52.096Z,19.70
2019-05-10T00:24:21.257Z,21.23
2019-05-10T00:26:50.290Z,23.02
2019-05-10T00:29:19.047Z,22.90
2019-05-10T00:31:47.988Z,23.67
2019-05-10T00:34:16.746Z,25.10
2019-05-10T00:36:45.692Z,31.77
2019-05-10T00:39:14.912Z,27.90
2019-05-10T00:41:43.656Z,29.18
2019-05-10T00:44:12.341Z,31.52
2019-05-10T00:46:41.354Z,33.13
2019-05-10T00:49:10.137Z,45.38
2019-05-10T00:51:38.811Z,35.90
2019-05-10T00:54:08.134Z,35.58
2019-05-10T00:56:36.912Z,34.67
2019-05-10T00:59:05.969Z,34.53
2019-05-10T01:01:34.967Z,39.92
2019-05-10T01:04:03.961Z,39.05
2019-05-10T01:06:32.782Z,42.45
2019-05-10T01:09:01.511Z,38.75
2019-05-10T01:11:31.243Z,42.90
2019-05-10T01:14:00.181Z,43.33
2019-05-10T01:16:29.026Z,49.25
2019-05-10T01:18:58.215Z,49.18
2019-05-10T01:21:27.416Z,67.82
2019-05-10T01:23:56.344Z,48.95
2019-05-10T01:26:25.295Z,58.23
2019-05-10T01:28:54.237Z,39.60
2019-05-10T01:31:23.102Z,45.75
2019-05-10T01:33:52.273Z,44.63
2019-05-10T01:36:23.798Z,46.63
2019-05-10T01:38:52.754Z,51.80
2019-05-10T01:41:21.854Z,51.90
2019-05-10T01:43:50.537Z,60.23
2019-05-10T01:46:19.225Z,67.62
2019-05-10T01:48:48.143Z,57.93
2019-05-10T01:51:16.840Z,73.20
2019-05-10T01:53:50.414Z,58.30
2019-05-10T01:56:19.415Z,59.53
2019-05-10T01:58:48.575Z,61.65
2019-05-10T02:01:17.818Z,60.92
2019-05-10T02:03:46.519Z,63.30
2019-05-10T02:06:15.464Z,68.45
2019-05-10T02:08:44.143Z,68.90
2019-05-10T02:11:15.454Z,67.55
2019-05-10T02:13:44.138Z,61.42
2019-05-10T02:16:13.134Z,65.75
2019-05-10T02:18:41.819Z,58.35
2019-05-10T02:21:10.505Z,56.80
2019-05-10T02:23:39.434Z,56.40
2019-05-10T02:26:09.950Z,58.70
2019-05-10T02:28:39.419Z,56.25
2019-05-10T02:31:08.178Z,55.55
2019-05-10T02:33:37.126Z,54.48
2019-05-10T02:36:05.885Z,53.42
2019-05-10T02:38:35.137Z,52.70
2019-05-10T02:41:03.953Z,48.73
2019-05-10T02:43:33.135Z,48.48
2019-05-10T02:46:02.047Z,49.35
2019-05-10T02:48:30.749Z,42.27
2019-05-10T02:50:59.920Z,47.03
2019-05-10T02:53:28.751Z,44.03
2019-05-10T02:55:58.650Z,42.48
2019-05-10T02:58:27.492Z,46.48
2019-05-10T03:00:57.884Z,40.55
2019-05-10T03:03:28.976Z,43.13
2019-05-10T03:05:59.187Z,38.93
2019-05-10T03:08:31.992Z,35.13
2019-05-10T03:11:00.979Z,38.25
2019-05-10T03:13:30.469Z,36.83
2019-05-10T03:16:04.391Z,32.63
2019-05-10T03:18:34.111Z,29.98
2019-05-10T03:21:02.741Z,29.30
2019-05-10T03:23:32.071Z,27.93
2019-05-10T03:26:00.873Z,22.10
2019-05-10T03:28:29.580Z,23.57
2019-05-10T03:30:58.501Z,29.37
2019-05-10T03:33:27.221Z,28.35
2019-05-10T03:35:55.973Z,30.45
2019-05-10T03:38:24.731Z,23.00
2019-05-10T03:40:53.560Z,23.35
2019-05-10T03:43:22.229Z,21.48
2019-05-10T03:45:51.214Z,27.77
2019-05-10T03:48:20.156Z,25.15
2019-05-10T03:50:49.085Z,19.85
2019-05-10T03:53:17.780Z,22.10
2019-05-10T03:55:46.830Z,24.40
2019-05-10T03:58:15.526Z,25.75
2019-05-10T04:00:44.683Z,25.37
2019-05-10T04:03:16.295Z,25.20
2019-05-10T04:05:44.968Z,25.80
2019-05-10T04:08:13.937Z,27.90
2019-05-10T04:10:42.627Z,25.10
2019-05-10T04:13:11.318Z,25.48
2019-05-10T04:15:40.006Z,23.38
2019-05-10T04:18:08.962Z,30.00
2019-05-10T04:20:37.644Z,25.50
2019-05-10T04:23:06.331Z,26.93
2019-05-10T04:25:35.532Z,27.07
2019-05-10T04:28:04.272Z,27.75
2019-05-10T04:30:32.947Z,29.55
2019-05-10T04:33:04.242Z,27.17
2019-05-10T04:35:33.240Z,30.88
2019-05-10T04:38:02.169Z,26.25
2019-05-10T04:40:30.857Z,30.70
2019-05-10T04:42:59.821Z,30.12
2019-05-10T04:45:28.594Z,24.90
2019-05-10T04:47:57.435Z,30.85
2019-05-10T04:50:26.141Z,33.28
2019-05-10T04:52:54.808Z,29.40
2019-05-10T04:55:23.508Z,28.70
2019-05-10T04:57:52.268Z,29.63
2019-05-10T05:00:20.948Z,34.75
2019-05-10T05:02:49.621Z,30.90
2019-05-10T05:05:18.383Z,27.17
2019-05-10T05:07:49.184Z,29.00
2019-05-10T05:10:17.919Z,27.93
2019-05-10T05:12:46.857Z,35.17
2019-05-10T05:15:17.123Z,32.00
2019-05-10T05:17:45.798Z,30.30
2019-05-10T05:20:14.645Z,33.70
2019-05-10T05:22:43.923Z,33.23
2019-05-10T05:25:12.838Z,35.13
2019-05-10T05:27:41.515Z,38.98
2019-05-10T05:30:10.570Z,35.10
2019-05-10T05:32:44.284Z,38.50
2019-05-10T05:35:09.913Z,37.15
2019-05-10T05:37:38.872Z,33.70
2019-05-10T05:40:07.983Z,35.45
2019-05-10T05:42:36.696Z,39.73
2019-05-10T05:45:05.690Z,38.25
2019-05-10T05:47:37.470Z,35.10
2019-05-10T05:50:05.667Z,37.63
2019-05-10T05:52:34.598Z,37.28
2019-05-10T05:55:03.306Z,39.38
2019-05-10T05:57:32.235Z,37.70
2019-05-10T06:00:03.890Z,38.13
2019-05-10T06:02:31.325Z,40.70
2019-05-10T06:05:00.089Z,33.73
2019-05-10T06:07:31.085Z,32.73
2019-05-10T06:09:59.207Z,36.23
2019-05-10T06:12:28.148Z,37.20
2019-05-10T06:14:56.835Z,32.23
2019-05-10T06:17:29.582Z,31.05
2019-05-10T06:20:00.932Z,38.00
2019-05-10T06:22:26.469Z,32.60
2019-05-10T06:24:55.414Z,35.17
2019-05-10T06:27:24.635Z,38.35
2019-05-10T06:29:53.345Z,36.05
2019-05-10T06:32:22.295Z,33.88
2019-05-10T06:34:51.271Z,34.48
2019-05-10T06:37:20.038Z,25.72
2019-05-10T06:39:49.276Z,31.65
2019-05-10T06:42:18.207Z,28.07
2019-05-10T06:44:46.936Z,28.98
2019-05-10T06:47:15.628Z,28.65
2019-05-10T06:49:50.745Z,31.27
2019-05-10T06:52:16.457Z,28.12
2019-05-10T06:54:45.230Z,31.85
2019-05-10T06:57:17.489Z,169.77
2019-05-10T06:59:44.573Z,75.57
2019-05-10T07:02:13.299Z,99.25
2019-05-10T07:04:42.015Z,122.90
2019-05-10T07:07:22.087Z,206.57
2019-05-10T07:10:03.798Z,87.75
2019-05-10T07:12:15.184Z,30.30
2019-05-10T07:14:46.084Z,106.27
2019-05-10T07:17:15.060Z,33.73
2019-05-10T07:19:53.267Z,43.05
2019-05-10T07:22:14.394Z,52.10
2019-05-10T07:24:43.449Z,31.68
2019-05-10T07:27:12.164Z,44.42
2019-05-10T07:29:42.967Z,59.33
2019-05-10T07:32:16.463Z,32.75
2019-05-10T07:34:41.933Z,32.80
2019-05-10T07:37:20.866Z,41.88
2019-05-10T07:39:41.092Z,36.28
2019-05-10T07:42:09.807Z,39.80
2019-05-10T07:44:41.614Z,43.78
2019-05-10T07:47:08.977Z,37.17
2019-05-10T07:49:37.681Z,36.98
2019-05-10T07:52:06.462Z,39.20
2019-05-10T07:54:37.504Z,38.48
2019-05-10T07:57:05.576Z,36.98
2019-05-10T07:59:49.501Z,40.50
2019-05-10T08:02:05.850Z,39.60
2019-05-10T08:04:35.490Z,37.30
2019-05-10T08:07:07.342Z,38.50
2019-05-10T08:09:37.229Z,37.35
2019-05-10T08:12:05.546Z,38.92
2019-05-10T08:14:35.734Z,43.28
2019-05-10T08:17:06.314Z,41.10
2019-05-10T08:19:37.681Z,41.58
2019-05-10T08:22:08.808Z,40.28
2019-05-10T08:24:36.279Z,36.17
2019-05-10T08:27:11.588Z,37.85
2019-05-10T08:29:35.770Z,34.80
2019-05-10T08:32:04.707Z,39.63
2019-05-10T08:34:35.470Z,38.70
2019-05-10T08:37:04.089Z,37.85
2019-05-10T08:39:44.093Z,37.90
2019-05-10T08:42:13.624Z,34.73
2019-05-10T08:44:34.233Z,34.03
2019-05-10T08:47:07.654Z,31.02
2019-05-10T08:49:43.546Z,34.63
2019-05-10T08:52:04.119Z,33.88
2019-05-10T08:54:32.952Z,24.35
2019-05-10T08:57:05.230Z,25.02
2019-05-10T08:59:33.947Z,21.77
2019-05-10T09:02:02.413Z,22.22
2019-05-10T09:04:41.749Z,24.15
2019-05-10T09:07:02.844Z,24.35
2019-05-10T09:09:33.858Z,24.27
2019-05-10T09:12:04.081Z,20.95
2019-05-10T09:14:32.804Z,17.90
2019-05-10T09:17:04.307Z,15.35
2019-05-10T09:19:39.623Z,14.85
2019-05-10T09:22:02.842Z,15.75
2019-05-10T09:24:34.531Z,15.68
2019-05-10T09:27:02.233Z,15.18
2019-05-10T09:29:35.192Z,15.00
2019-05-10T09:32:06.208Z,15.68
2019-05-10T09:34:32.537Z,16.05
2019-05-10T09:37:02.993Z,16.15
2019-05-10T09:39:32.357Z,16.12
2019-05-10T09:42:08.486Z,14.23
2019-05-10T09:44:32.984Z,14.30
2019-05-10T09:47:04.072Z,15.32
2019-05-10T09:49:33.243Z,14.63
2019-05-10T09:52:12.693Z,14.87
2019-05-10T09:54:37.933Z,15.13
2019-05-10T09:57:08.235Z,11.78
2019-05-10T09:59:36.936Z,11.48
2019-05-10T10:02:14.682Z,13.43
2019-05-10T10:04:37.249Z,12.40
2019-05-10T10:07:06.044Z,10.38
2019-05-10T10:09:42.023Z,14.80
2019-05-10T10:12:06.918Z,10.93
2019-05-10T10:14:42.989Z,12.23
2019-05-10T10:17:08.839Z,12.30
2019-05-10T10:19:40.683Z,15.55
2019-05-10T10:22:11.020Z,9.88
2019-05-10T10:24:41.058Z,9.63
2019-05-10T10:27:09.326Z,8.90
2019-05-10T10:29:38.802Z,8.63
2019-05-10T10:32:08.084Z,7.60
2019-05-10T10:34:38.750Z,6.87
2019-05-10T10:37:07.944Z,5.50
2019-05-10T10:39:37.314Z,5.33
2019-05-10T10:42:08.822Z,5.03
2019-05-10T10:44:37.112Z,5.10
2019-05-10T10:47:08.018Z,5.00
2019-05-10T10:49:37.777Z,6.62
2019-05-10T10:52:11.190Z,5.28
2019-05-10T10:54:39.782Z,4.80
2019-05-10T10:57:08.147Z,5.78
2019-05-10T10:59:37.442Z,6.37
2019-05-10T11:02:28.999Z,6.47
2019-05-10T11:04:40.403Z,6.47
2019-05-10T11:07:10.816Z,6.20
2019-05-10T11:09:37.619Z,8.63
2019-05-10T11:12:06.310Z,15.03
2019-05-10T11:14:40.077Z,14.55
2019-05-10T11:17:05.427Z,8.20
2019-05-10T11:19:34.115Z,10.72
2019-05-10T11:22:09.433Z,9.83
2019-05-10T11:24:33.536Z,7.70
2019-05-10T11:27:02.456Z,6.67
2019-05-10T11:29:31.410Z,7.78
2019-05-10T11:32:14.664Z,8.50
2019-05-10T11:34:37.288Z,7.12
2019-05-10T11:37:03.509Z,9.43
2019-05-10T11:39:40.648Z,7.45
2019-05-10T11:42:07.177Z,8.38
2019-05-10T11:44:33.989Z,9.60
2019-05-10T11:47:02.672Z,8.23
2019-05-10T11:49:31.363Z,8.55
2019-05-10T11:52:01.645Z,8.58
2019-05-10T11:54:31.920Z,10.78
2019-05-10T11:57:06.107Z,7.12
2019-05-10T11:59:36.185Z,7.35
2019-05-10T12:02:03.013Z,8.03
2019-05-10T12:04:38.929Z,6.95
2019-05-10T12:07:08.333Z,9.23
2019-05-10T12:09:33.489Z,10.18
2019-05-10T12:12:03.409Z,7.45
2019-05-10T12:14:32.632Z,11.50
2019-05-10T12:17:05.602Z,46.30
2019-05-10T12:19:36.733Z,8.90
2019-05-10T12:22:04.573Z,8.53
2019-05-10T12:24:46.976Z,14.90
2019-05-10T12:27:18.706Z,8.45
2019-05-10T12:29:34.585Z,7.42
2019-05-10T12:32:03.247Z,5.72
2019-05-10T12:34:31.946Z,6.45
2019-05-10T12:37:06.298Z,6.65
2019-05-10T12:39:32.017Z,5.08
2019-05-10T12:42:00.699Z,5.50
2019-05-10T12:44:33.220Z,6.78
2019-05-10T12:47:01.298Z,5.47
2019-05-10T12:49:31.526Z,7.50
2019-05-10T12:52:00.267Z,8.38
2019-05-10T12:54:28.996Z,5.80
2019-05-10T12:56:57.950Z,4.85
2019-05-10T12:59:29.737Z,4.85
2019-05-10T13:02:04.354Z,4.87
2019-05-10T13:04:40.197Z,5.87
2019-05-10T13:07:00.311Z,4.83
2019-05-10T13:09:39.750Z,8.00
2019-05-10T13:12:04.025Z,7.75
2019-05-10T13:14:30.154Z,8.03
2019-05-10T13:17:03.885Z,11.10
2019-05-10T13:19:29.767Z,8.15
2019-05-10T13:22:00.768Z,10.28
2019-05-10T13:24:29.604Z,13.72
2019-05-10T13:26:58.296Z,5.92
2019-05-10T13:29:26.976Z,9.35
2019-05-10T13:31:56.740Z,5.67
2019-05-10T13:34:25.534Z,18.32
2019-05-10T13:36:54.505Z,9.08
2019-05-10T13:39:25.674Z,4.78
2019-05-10T13:41:57.294Z,9.08
2019-05-10T13:44:24.770Z,3.95
2019-05-10T13:46:53.534Z,5.97
2019-05-10T13:49:22.285Z,6.83
2019-05-10T13:51:51.382Z,6.70
2019-05-10T13:54:21.714Z,6.67
2019-05-10T13:56:55.041Z,6.15
2019-05-10T13:59:21.058Z,8.23
2019-05-10T14:01:51.498Z,8.98
2019-05-10T14:04:23.342Z,6.40
2019-05-10T14:09:21.032Z,6.40
2019-05-10T14:11:50.029Z,5.78
2019-05-10T14:14:20.364Z,5.92
2019-05-10T14:16:49.200Z,5.05
2019-05-10T14:19:22.810Z,5.35
2019-05-10T14:21:49.090Z,7.08
2019-05-10T14:24:19.129Z,5.53
2019-05-10T14:26:51.420Z,6.53
2019-05-10T14:29:18.565Z,6.80
2019-05-10T14:31:47.619Z,7.65
2019-05-10T14:34:16.284Z,5.08
2019-05-10T14:36:44.977Z,5.08
2019-05-10T14:39:13.648Z,4.92
2019-05-10T14:41:45.207Z,7.40
2019-05-10T14:44:12.786Z,4.53
2019-05-10T14:46:41.506Z,5.92
2019-05-10T14:49:11.800Z,5.30
2019-05-10T14:51:57.833Z,5.42
2019-05-10T14:54:13.107Z,4.80
2019-05-10T14:56:41.782Z,4.83
2019-05-10T14:59:10.473Z,6.87
2019-05-10T15:01:42.712Z,5.62
2019-05-10T15:04:09.821Z,5.65
2019-05-10T15:06:39.015Z,6.72
2019-05-10T15:09:20.581Z,6.97
2019-05-10T15:11:39.229Z,7.90
2019-05-10T15:14:08.528Z,8.18
2019-05-10T15:16:37.211Z,28.42
2019-05-10T15:19:05.882Z,11.43
2019-05-10T15:21:34.861Z,16.75
2019-05-10T15:24:03.810Z,8.93
2019-05-10T15:26:37.318Z,19.37
2019-05-10T15:29:02.914Z,14.53
2019-05-10T15:31:31.852Z,12.55
2019-05-10T15:34:04.766Z,12.85
2019-05-10T15:36:31.749Z,19.98
2019-05-10T15:39:00.509Z,19.87
2019-05-10T15:41:30.930Z,19.52
2019-05-10T15:43:59.641Z,9.65
2019-05-10T15:46:35.425Z,10.45
2019-05-10T15:48:58.795Z,16.60
2019-05-10T15:51:35.725Z,15.15
2019-05-10T15:54:07.019Z,22.60
2019-05-10T15:56:35.651Z,27.50
2019-05-10T15:59:05.446Z,11.43
2019-05-10T16:01:34.406Z,21.55
2019-05-10T16:04:03.111Z,12.50
2019-05-10T16:06:37.807Z,11.95
2019-05-10T16:09:08.697Z,9.45
2019-05-10T16:11:33.137Z,7.15
2019-05-10T16:14:02.079Z,6.20
2019-05-10T16:16:37.366Z,9.45
2019-05-10T16:19:01.490Z,7.67
2019-05-10T16:21:30.176Z,9.65
2019-05-10T16:23:59.111Z,7.35
2019-05-10T16:26:28.069Z,7.97
2019-05-10T16:29:01.824Z,6.25
2019-05-10T16:31:27.414Z,6.12
2019-05-10T16:33:56.137Z,8.85
2019-05-10T16:36:28.395Z,10.28
2019-05-10T16:39:01.390Z,7.35
2019-05-10T16:41:28.431Z,8.23
2019-05-10T16:43:58.419Z,7.62
2019-05-10T16:46:28.041Z,10.35
2019-05-10T16:48:57.225Z,8.28
2019-05-10T16:51:27.102Z,8.45
2019-05-10T16:53:55.791Z,7.17
2019-05-10T16:56:26.619Z,6.40
2019-05-10T16:58:55.327Z,7.90
2019-05-10T17:01:25.709Z,7.65
2019-05-10T17:03:59.841Z,7.67
2019-05-10T17:06:25.298Z,8.08
2019-05-10T17:08:53.993Z,8.90
2019-05-10T17:11:22.938Z,8.18
2019-05-10T17:13:55.579Z,10.95
2019-05-10T17:16:22.031Z,8.88
2019-05-10T17:18:55.126Z,7.97
2019-05-10T17:21:21.164Z,6.58
2019-05-10T17:23:50.130Z,8.03
2019-05-10T17:26:18.798Z,7.30
2019-05-10T17:28:47.589Z,9.90
2019-05-10T17:31:16.285Z,7.05
2019-05-10T17:33:45.229Z,10.70
2019-05-10T17:36:19.078Z,10.32
2019-05-10T17:38:47.454Z,9.43
2019-05-10T17:41:19.577Z,9.98
2019-05-10T17:43:45.324Z,8.80
2019-05-10T17:46:18.885Z,11.75
2019-05-10T17:48:49.417Z,11.10
2019-05-10T17:51:20.117Z,10.03
2019-05-10T17:53:54.965Z,9.48
2019-05-10T17:56:19.947Z,9.83
2019-05-10T17:58:48.601Z,10.15
2019-05-10T18:01:17.337Z,12.03
2019-05-10T18:03:46.082Z,14.55
2019-05-10T18:06:23.550Z,12.73
2019-05-10T18:08:45.496Z,8.73
2019-05-10T18:11:14.266Z,10.55
2019-05-10T18:13:43.240Z,9.25
2019-05-10T18:16:12.274Z,15.32
2019-05-10T18:18:46.272Z,18.92
2019-05-10T18:21:15.789Z,22.93
2019-05-10T18:23:42.060Z,17.02
2019-05-10T18:26:10.769Z,12.23
2019-05-10T18:28:41.114Z,8.60
2019-05-10T18:31:10.072Z,8.85
2019-05-10T18:33:39.302Z,10.38
2019-05-10T18:36:10.927Z,10.28
2019-05-10T18:38:39.077Z,10.75
2019-05-10T18:41:10.112Z,8.83
2019-05-10T18:43:40.824Z,9.93
2019-05-10T18:46:09.597Z,9.98
2019-05-10T18:48:38.555Z,9.30
2019-05-10T18:51:07.257Z,8.95
2019-05-10T18:53:38.303Z,18.27
2019-05-10T18:56:06.998Z,24.97
2019-05-10T18:58:35.734Z,24.50
2019-05-10T19:01:04.858Z,16.93
2019-05-10T19:03:35.377Z,14.65
2019-05-10T19:06:11.016Z,10.60
2019-05-10T19:08:37.996Z,10.32
2019-05-10T19:13:46.117Z,10.23
2019-05-10T19:16:06.129Z,10.05
2019-05-10T19:18:34.909Z,7.80
2019-05-10T19:21:04.001Z,11.60
2019-05-10T19:23:32.676Z,13.08
2019-05-10T19:26:03.897Z,11.80
2019-05-10T19:28:32.637Z,9.10
2019-05-10T19:31:01.393Z,16.55
2019-05-10T19:33:36.362Z,15.30
2019-05-10T19:36:00.481Z,15.85
2019-05-10T19:38:29.775Z,22.62
2019-05-10T19:40:59.339Z,15.68
2019-05-10T19:43:29.755Z,19.32
2019-05-10T19:45:59.722Z,14.18
2019-05-10T19:48:35.146Z,13.75
2019-05-10T19:51:02.831Z,12.30
2019-05-10T19:53:30.425Z,10.15
2019-05-10T19:55:59.328Z,11.20
2019-05-10T19:58:32.131Z,9.15
2019-05-10T20:00:58.630Z,10.60
2019-05-10T20:03:27.347Z,10.90
2019-05-10T20:05:56.081Z,12.47
2019-05-10T20:08:24.761Z,12.78
2019-05-10T20:10:53.463Z,13.00
2019-05-10T20:13:22.240Z,12.95
2019-05-10T20:15:51.191Z,16.12
2019-05-10T20:18:20.121Z,17.35
2019-05-10T20:20:48.811Z,17.95
2019-05-10T20:23:17.503Z,15.28
2019-05-10T20:25:46.290Z,15.68
2019-05-10T20:28:15.059Z,17.15
2019-05-10T20:30:43.989Z,18.45
2019-05-10T20:33:12.673Z,20.00
2019-05-10T20:35:41.674Z,18.67
2019-05-10T20:38:10.352Z,29.57
2019-05-10T20:40:39.137Z,125.12
2019-05-10T20:43:07.874Z,56.23
2019-05-10T20:45:36.827Z,35.13
2019-05-10T20:48:05.948Z,51.30
2019-05-10T20:50:34.651Z,159.67
2019-05-10T20:53:03.347Z,126.12
2019-05-10T20:55:32.362Z,55.80
2019-05-10T20:58:01.068Z,42.73
2019-05-10T21:00:30.537Z,39.80
2019-05-10T21:02:59.233Z,36.93
2019-05-10T21:05:28.245Z,32.53
2019-05-10T21:07:57.513Z,28.42
2019-05-10T21:10:26.194Z,32.75
2019-05-10T21:12:55.541Z,41.77
2019-05-10T21:15:24.327Z,37.45
2019-05-10T21:17:53.314Z,40.10
2019-05-10T21:20:21.999Z,34.23
2019-05-10T21:22:50.711Z,31.82
2019-05-10T21:25:19.684Z,30.70
2019-05-10T21:27:48.732Z,28.70
2019-05-10T21:30:17.810Z,26.50
2019-05-10T21:32:46.494Z,28.65
2019-05-10T21:35:15.560Z,26.45
2019-05-10T21:37:44.262Z,27.52
2019-05-10T21:40:13.286Z,26.80
2019-05-10T21:42:42.261Z,28.45
2019-05-10T21:45:11.362Z,27.70
2019-05-10T21:47:51.142Z,27.62
2019-05-10T21:50:10.891Z,24.67
2019-05-10T21:52:39.856Z,26.00
2019-05-10T21:55:08.856Z,25.55
2019-05-10T21:57:37.542Z,24.52
2019-05-10T22:00:07.168Z,25.10
2019-05-10T22:02:36.209Z,25.17
2019-05-10T22:05:05.983Z,28.83
2019-05-10T22:07:34.834Z,25.90
2019-05-10T22:10:04.001Z,26.25
2019-05-10T22:12:32.688Z,27.55
2019-05-10T22:15:01.376Z,26.85
2019-05-10T22:17:30.338Z,27.58
2019-05-10T22:19:59.049Z,27.27
2019-05-10T22:22:28.012Z,26.35
2019-05-10T22:24:56.760Z,29.72
2019-05-10T22:27:25.642Z,28.95
2019-05-10T22:29:54.320Z,26.17
2019-05-10T22:32:22.992Z,30.40
2019-05-10T22:34:51.937Z,30.65
2019-05-10T22:37:20.645Z,28.90
2019-05-10T22:39:49.318Z,29.63
2019-05-10T22:42:18.017Z,28.10
2019-05-10T22:44:46.691Z,27.52
2019-05-10T22:47:15.449Z,25.23
2019-05-10T22:49:46.377Z,24.50
2019-05-10T22:52:15.561Z,22.22
2019-05-10T22:54:56.171Z,24.47
2019-05-10T22:57:25.135Z,26.82
2019-05-10T22:59:53.805Z,26.00
2019-05-10T23:02:22.834Z,24.82
2019-05-10T23:04:51.531Z,23.20
2019-05-10T23:07:20.494Z,25.95
2019-05-10T23:09:49.179Z,27.70
2019-05-10T23:12:17.919Z,26.40
2019-05-10T23:14:46.608Z,25.17
2019-05-10T23:17:15.427Z,25.15
2019-05-10T23:19:44.128Z,25.72
2019-05-10T23:22:12.864Z,25.95
2019-05-10T23:24:41.549Z,28.60
2019-05-10T23:27:10.336Z,27.42
2019-05-10T23:29:39.035Z,25.77
2019-05-10T23:32:07.997Z,29.18
2019-05-10T23:34:36.957Z,26.15
2019-05-10T23:37:06.588Z,32.63
2019-05-10T23:39:40.668Z,27.50
2019-05-10T23:42:05.803Z,26.82
2019-05-10T23:44:34.768Z,28.80
2019-05-10T23:47:03.506Z,27.25
2019-05-10T23:49:32.704Z,29.85
2019-05-10T23:52:01.772Z,26.15
2019-05-10T23:54:32.812Z,29.63
2019-05-10T23:57:01.865Z,27.67
2019-05-10T23:59:31.276Z,26.55
